sensor_id;sensor_type;location;lat;lon;timestamp;P1;durP1;ratioP1;P2;durP2;ratioP2
13991;SDS011;7070;53.586;9.692;2023-08-21T00:01:41;0.30;;;0.30;;
13991;SDS011;7070;53.586;9.692;2023-08-21T00:04:08;0.30;;;0.30;;
13991;SDS011;7070;53.586;9.692;2023-08-21T00:06:35;0.30;;;0.30;;
13991;SDS011;7070;53.586;9.692;2023-08-21T00:09:02;0.40;;;0.40;;
13991;SDS011;7070;53.586;9.692;2023-08-21T00:11:29;0.30;;;0.30;;
13991;SDS011;7070;53.586;9.692;2023-08-21T00:13:57;0.30;;;0.30;;
13991;SDS011;7070;53.586;9.692;2023-08-21T00:16:24;0.30;;;0.30;;
13991;SDS011;7070;53.586;9.692;2023-08-21T00:18:51;0.30;;;0.30;;
13991;SDS011;7070;53.586;9.692;2023-08-21T00:21:18;0.30;;;0.30;;
13991;SDS011;7070;53.586;9.692;2023-08-21T00:23:45;0.30;;;0.30;;
13991;SDS011;7070;53.586;9.692;2023-08-21T00:26:12;0.30;;;0.30;;
13991;SDS011;7070;53.586;9.692;2023-08-21T00:28:39;0.37;;;0.37;;
13991;SDS011;7070;53.586;9.692;2023-08-21T00:31:07;0.30;;;0.30;;
13991;SDS011;7070;53.586;9.692;2023-08-21T00:33:34;0.30;;;0.30;;
13991;SDS011;7070;53.586;9.692;2023-08-21T00:36:02;0.37;;;0.37;;
13991;SDS011;7070;53.586;9.692;2023-08-21T00:38:29;0.30;;;0.30;;
13991;SDS011;7070;53.586;9.692;2023-08-21T00:40:56;0.30;;;0.30;;
13991;SDS011;7070;53.586;9.692;2023-08-21T00:43:23;0.33;;;0.33;;
13991;SDS011;7070;53.586;9.692;2023-08-21T00:45:50;0.30;;;0.30;;
13991;SDS011;7070;53.586;9.692;2023-08-21T00:48:18;0.40;;;0.40;;
13991;SDS011;7070;53.586;9.692;2023-08-21T00:50:46;0.30;;;0.30;;
13991;SDS011;7070;53.586;9.692;2023-08-21T00:53:16;0.30;;;0.30;;
13991;SDS011;7070;53.586;9.692;2023-08-21T00:55:43;0.30;;;0.30;;
13991;SDS011;7070;53.586;9.692;2023-08-21T00:58:10;0.30;;;0.30;;
13991;SDS011;7070;53.586;9.692;2023-08-21T01:00:38;0.30;;;0.30;;
13991;SDS011;7070;53.586;9.692;2023-08-21T01:03:05;0.30;;;0.30;;
13991;SDS011;7070;53.586;9.692;2023-08-21T01:05:33;0.30;;;0.30;;
13991;SDS011;7070;53.586;9.692;2023-08-21T01:08:02;0.30;;;0.30;;
13991;SDS011;7070;53.586;9.692;2023-08-21T01:10:37;0.30;;;0.30;;
13991;SDS011;7070;53.586;9.692;2023-08-21T01:13:11;0.30;;;0.30;;
13991;SDS011;7070;53.586;9.692;2023-08-21T01:15:50;0.30;;;0.30;;
13991;SDS011;7070;53.586;9.692;2023-08-21T01:18:20;0.40;;;0.40;;
13991;SDS011;7070;53.586;9.692;2023-08-21T01:20:49;0.40;;;0.40;;
13991;SDS011;7070;53.586;9.692;2023-08-21T01:23:34;0.30;;;0.30;;
13991;SDS011;7070;53.586;9.692;2023-08-21T01:26:00;0.33;;;0.33;;
13991;SDS011;7070;53.586;9.692;2023-08-21T01:28:28;0.30;;;0.30;;
13991;SDS011;7070;53.586;9.692;2023-08-21T01:30:57;0.30;;;0.30;;
13991;SDS011;7070;53.586;9.692;2023-08-21T01:33:32;0.40;;;0.40;;
13991;SDS011;7070;53.586;9.692;2023-08-21T01:36:01;0.33;;;0.33;;
13991;SDS011;7070;53.586;9.692;2023-08-21T01:38:30;0.30;;;0.30;;
13991;SDS011;7070;53.586;9.692;2023-08-21T01:41:00;0.30;;;0.30;;
13991;SDS011;7070;53.586;9.692;2023-08-21T01:43:27;0.30;;;0.30;;
13991;SDS011;7070;53.586;9.692;2023-08-21T01:45:54;0.33;;;0.33;;
13991;SDS011;7070;53.586;9.692;2023-08-21T01:48:21;0.33;;;0.33;;
13991;SDS011;7070;53.586;9.692;2023-08-21T01:50:48;0.40;;;0.40;;
13991;SDS011;7070;53.586;9.692;2023-08-21T01:53:15;0.30;;;0.30;;
13991;SDS011;7070;53.586;9.692;2023-08-21T01:55:43;0.30;;;0.30;;
13991;SDS011;7070;53.586;9.692;2023-08-21T01:58:10;0.40;;;0.40;;
13991;SDS011;7070;53.586;9.692;2023-08-21T02:00:37;0.40;;;0.40;;
13991;SDS011;7070;53.586;9.692;2023-08-21T02:03:04;0.40;;;0.40;;
13991;SDS011;7070;53.586;9.692;2023-08-21T02:05:36;0.33;;;0.33;;
13991;SDS011;7070;53.586;9.692;2023-08-21T02:08:04;0.30;;;0.30;;
13991;SDS011;7070;53.586;9.692;2023-08-21T02:10:32;0.33;;;0.33;;
13991;SDS011;7070;53.586;9.692;2023-08-21T02:13:00;0.30;;;0.30;;
13991;SDS011;7070;53.586;9.692;2023-08-21T02:15:27;0.30;;;0.30;;
13991;SDS011;7070;53.586;9.692;2023-08-21T02:17:56;0.30;;;0.30;;
13991;SDS011;7070;53.586;9.692;2023-08-21T02:20:22;0.30;;;0.30;;
13991;SDS011;7070;53.586;9.692;2023-08-21T02:22:49;0.30;;;0.30;;
13991;SDS011;7070;53.586;9.692;2023-08-21T02:25:16;0.30;;;0.30;;
13991;SDS011;7070;53.586;9.692;2023-08-21T02:27:43;0.30;;;0.30;;
13991;SDS011;7070;53.586;9.692;2023-08-21T02:30:11;0.40;;;0.40;;
13991;SDS011;7070;53.586;9.692;2023-08-21T02:32:38;0.30;;;0.30;;
13991;SDS011;7070;53.586;9.692;2023-08-21T02:35:06;0.30;;;0.30;;
13991;SDS011;7070;53.586;9.692;2023-08-21T02:37:33;0.30;;;0.30;;
13991;SDS011;7070;53.586;9.692;2023-08-21T02:40:04;0.30;;;0.30;;
13991;SDS011;7070;53.586;9.692;2023-08-21T02:42:33;0.30;;;0.30;;
13991;SDS011;7070;53.586;9.692;2023-08-21T02:45:00;0.30;;;0.30;;
13991;SDS011;7070;53.586;9.692;2023-08-21T02:47:30;0.40;;;0.40;;
13991;SDS011;7070;53.586;9.692;2023-08-21T02:49:57;0.30;;;0.30;;
13991;SDS011;7070;53.586;9.692;2023-08-21T02:52:24;0.30;;;0.30;;
13991;SDS011;7070;53.586;9.692;2023-08-21T02:54:51;0.33;;;0.33;;
13991;SDS011;7070;53.586;9.692;2023-08-21T02:57:18;0.30;;;0.30;;
13991;SDS011;7070;53.586;9.692;2023-08-21T02:59:44;0.30;;;0.30;;
13991;SDS011;7070;53.586;9.692;2023-08-21T03:02:11;0.30;;;0.30;;
13991;SDS011;7070;53.586;9.692;2023-08-21T03:04:39;0.30;;;0.30;;
13991;SDS011;7070;53.586;9.692;2023-08-21T03:07:06;0.30;;;0.30;;
13991;SDS011;7070;53.586;9.692;2023-08-21T03:09:33;0.23;;;0.23;;
13991;SDS011;7070;53.586;9.692;2023-08-21T03:12:00;0.30;;;0.30;;
13991;SDS011;7070;53.586;9.692;2023-08-21T03:14:27;0.30;;;0.30;;
13991;SDS011;7070;53.586;9.692;2023-08-21T03:16:54;0.30;;;0.30;;
13991;SDS011;7070;53.586;9.692;2023-08-21T03:19:21;0.30;;;0.30;;
13991;SDS011;7070;53.586;9.692;2023-08-21T03:21:49;0.30;;;0.30;;
13991;SDS011;7070;53.586;9.692;2023-08-21T03:24:16;0.33;;;0.33;;
13991;SDS011;7070;53.586;9.692;2023-08-21T03:26:43;0.30;;;0.30;;
13991;SDS011;7070;53.586;9.692;2023-08-21T03:29:10;0.30;;;0.30;;
13991;SDS011;7070;53.586;9.692;2023-08-21T03:31:37;0.20;;;0.20;;
13991;SDS011;7070;53.586;9.692;2023-08-21T03:34:04;0.30;;;0.30;;
13991;SDS011;7070;53.586;9.692;2023-08-21T03:36:30;0.30;;;0.30;;
13991;SDS011;7070;53.586;9.692;2023-08-21T03:38:59;0.30;;;0.30;;
13991;SDS011;7070;53.586;9.692;2023-08-21T03:41:26;0.40;;;0.40;;
13991;SDS011;7070;53.586;9.692;2023-08-21T03:43:53;0.30;;;0.30;;
13991;SDS011;7070;53.586;9.692;2023-08-21T03:46:20;0.30;;;0.30;;
13991;SDS011;7070;53.586;9.692;2023-08-21T03:48:47;0.30;;;0.30;;
13991;SDS011;7070;53.586;9.692;2023-08-21T03:51:15;0.30;;;0.30;;
13991;SDS011;7070;53.586;9.692;2023-08-21T03:53:42;0.30;;;0.30;;
13991;SDS011;7070;53.586;9.692;2023-08-21T03:56:10;0.20;;;0.20;;
13991;SDS011;7070;53.586;9.692;2023-08-21T03:58:37;0.30;;;0.30;;
13991;SDS011;7070;53.586;9.692;2023-08-21T04:01:04;0.30;;;0.30;;
13991;SDS011;7070;53.586;9.692;2023-08-21T04:03:31;0.30;;;0.30;;
13991;SDS011;7070;53.586;9.692;2023-08-21T04:05:58;0.30;;;0.30;;
13991;SDS011;7070;53.586;9.692;2023-08-21T04:08:25;0.30;;;0.30;;
13991;SDS011;7070;53.586;9.692;2023-08-21T04:10:52;0.30;;;0.30;;
13991;SDS011;7070;53.586;9.692;2023-08-21T04:13:20;0.30;;;0.30;;
13991;SDS011;7070;53.586;9.692;2023-08-21T04:15:48;0.20;;;0.20;;
13991;SDS011;7070;53.586;9.692;2023-08-21T04:18:16;0.30;;;0.30;;
13991;SDS011;7070;53.586;9.692;2023-08-21T04:20:42;0.30;;;0.30;;
13991;SDS011;7070;53.586;9.692;2023-08-21T04:23:09;0.20;;;0.20;;
13991;SDS011;7070;53.586;9.692;2023-08-21T04:25:36;0.30;;;0.30;;
13991;SDS011;7070;53.586;9.692;2023-08-21T04:28:03;0.30;;;0.30;;
13991;SDS011;7070;53.586;9.692;2023-08-21T04:30:32;0.30;;;0.30;;
13991;SDS011;7070;53.586;9.692;2023-08-21T04:32:59;0.30;;;0.30;;
13991;SDS011;7070;53.586;9.692;2023-08-21T04:35:26;0.23;;;0.23;;
13991;SDS011;7070;53.586;9.692;2023-08-21T04:37:53;0.30;;;0.30;;
13991;SDS011;7070;53.586;9.692;2023-08-21T04:40:20;0.20;;;0.20;;
13991;SDS011;7070;53.586;9.692;2023-08-21T04:42:47;0.30;;;0.30;;
13991;SDS011;7070;53.586;9.692;2023-08-21T04:45:14;0.30;;;0.30;;
13991;SDS011;7070;53.586;9.692;2023-08-21T04:47:42;0.40;;;0.40;;
13991;SDS011;7070;53.586;9.692;2023-08-21T04:50:09;0.30;;;0.30;;
13991;SDS011;7070;53.586;9.692;2023-08-21T04:52:36;0.30;;;0.30;;
13991;SDS011;7070;53.586;9.692;2023-08-21T04:55:03;0.30;;;0.30;;
13991;SDS011;7070;53.586;9.692;2023-08-21T04:57:30;0.30;;;0.30;;
13991;SDS011;7070;53.586;9.692;2023-08-21T04:59:57;0.27;;;0.27;;
13991;SDS011;7070;53.586;9.692;2023-08-21T05:02:24;0.20;;;0.20;;
13991;SDS011;7070;53.586;9.692;2023-08-21T05:04:52;0.30;;;0.30;;
13991;SDS011;7070;53.586;9.692;2023-08-21T05:07:19;0.30;;;0.30;;
13991;SDS011;7070;53.586;9.692;2023-08-21T05:09:46;0.30;;;0.30;;
13991;SDS011;7070;53.586;9.692;2023-08-21T05:12:13;0.30;;;0.30;;
13991;SDS011;7070;53.586;9.692;2023-08-21T05:14:40;0.30;;;0.30;;
13991;SDS011;7070;53.586;9.692;2023-08-21T05:17:07;0.30;;;0.30;;
13991;SDS011;7070;53.586;9.692;2023-08-21T05:19:33;0.30;;;0.30;;
13991;SDS011;7070;53.586;9.692;2023-08-21T05:22:02;0.20;;;0.20;;
13991;SDS011;7070;53.586;9.692;2023-08-21T05:24:29;0.30;;;0.30;;
13991;SDS011;7070;53.586;9.692;2023-08-21T05:26:56;0.37;;;0.37;;
13991;SDS011;7070;53.586;9.692;2023-08-21T05:29:23;0.30;;;0.30;;
13991;SDS011;7070;53.586;9.692;2023-08-21T05:31:50;0.30;;;0.30;;
13991;SDS011;7070;53.586;9.692;2023-08-21T05:34:17;0.20;;;0.20;;
13991;SDS011;7070;53.586;9.692;2023-08-21T05:36:44;0.27;;;0.27;;
13991;SDS011;7070;53.586;9.692;2023-08-21T05:39:12;0.30;;;0.30;;
13991;SDS011;7070;53.586;9.692;2023-08-21T05:41:39;0.30;;;0.30;;
13991;SDS011;7070;53.586;9.692;2023-08-21T05:44:06;0.30;;;0.30;;
13991;SDS011;7070;53.586;9.692;2023-08-21T05:46:32;0.30;;;0.30;;
13991;SDS011;7070;53.586;9.692;2023-08-21T05:48:59;0.20;;;0.20;;
13991;SDS011;7070;53.586;9.692;2023-08-21T05:51:26;0.23;;;0.23;;
13991;SDS011;7070;53.586;9.692;2023-08-21T05:53:53;0.20;;;0.20;;
13991;SDS011;7070;53.586;9.692;2023-08-21T05:56:21;0.30;;;0.30;;
13991;SDS011;7070;53.586;9.692;2023-08-21T05:58:48;0.30;;;0.30;;
13991;SDS011;7070;53.586;9.692;2023-08-21T06:01:15;0.20;;;0.20;;
13991;SDS011;7070;53.586;9.692;2023-08-21T06:03:42;0.20;;;0.20;;
13991;SDS011;7070;53.586;9.692;2023-08-21T06:06:09;0.20;;;0.20;;
13991;SDS011;7070;53.586;9.692;2023-08-21T06:08:36;0.23;;;0.23;;
13991;SDS011;7070;53.586;9.692;2023-08-21T06:11:03;0.20;;;0.20;;
13991;SDS011;7070;53.586;9.692;2023-08-21T06:13:31;0.30;;;0.30;;
13991;SDS011;7070;53.586;9.692;2023-08-21T06:15:58;0.30;;;0.30;;
13991;SDS011;7070;53.586;9.692;2023-08-21T06:18:25;0.30;;;0.30;;
13991;SDS011;7070;53.586;9.692;2023-08-21T06:20:52;0.20;;;0.20;;
13991;SDS011;7070;53.586;9.692;2023-08-21T06:23:20;0.20;;;0.20;;
13991;SDS011;7070;53.586;9.692;2023-08-21T06:25:47;0.30;;;0.30;;
13991;SDS011;7070;53.586;9.692;2023-08-21T06:28:14;0.23;;;0.23;;
13991;SDS011;7070;53.586;9.692;2023-08-21T06:30:43;0.20;;;0.20;;
13991;SDS011;7070;53.586;9.692;2023-08-21T06:33:10;0.30;;;0.30;;
13991;SDS011;7070;53.586;9.692;2023-08-21T06:35:36;0.30;;;0.30;;
13991;SDS011;7070;53.586;9.692;2023-08-21T06:38:03;0.27;;;0.27;;
13991;SDS011;7070;53.586;9.692;2023-08-21T06:40:30;0.30;;;0.30;;
13991;SDS011;7070;53.586;9.692;2023-08-21T06:42:57;0.20;;;0.20;;
13991;SDS011;7070;53.586;9.692;2023-08-21T06:45:24;0.20;;;0.20;;
13991;SDS011;7070;53.586;9.692;2023-08-21T06:47:54;0.20;;;0.20;;
13991;SDS011;7070;53.586;9.692;2023-08-21T06:50:21;0.20;;;0.20;;
13991;SDS011;7070;53.586;9.692;2023-08-21T06:52:48;0.20;;;0.20;;
13991;SDS011;7070;53.586;9.692;2023-08-21T06:55:15;0.20;;;0.20;;
13991;SDS011;7070;53.586;9.692;2023-08-21T06:57:42;0.20;;;0.20;;
13991;SDS011;7070;53.586;9.692;2023-08-21T07:00:09;0.30;;;0.30;;
13991;SDS011;7070;53.586;9.692;2023-08-21T07:02:37;0.20;;;0.20;;
13991;SDS011;7070;53.586;9.692;2023-08-21T07:05:05;0.20;;;0.20;;
13991;SDS011;7070;53.586;9.692;2023-08-21T07:07:33;0.30;;;0.30;;
13991;SDS011;7070;53.586;9.692;2023-08-21T07:10:00;0.20;;;0.20;;
13991;SDS011;7070;53.586;9.692;2023-08-21T07:12:28;0.20;;;0.20;;
13991;SDS011;7070;53.586;9.692;2023-08-21T07:14:55;0.17;;;0.17;;
13991;SDS011;7070;53.586;9.692;2023-08-21T07:17:22;0.20;;;0.20;;
13991;SDS011;7070;53.586;9.692;2023-08-21T07:19:48;0.20;;;0.20;;
13991;SDS011;7070;53.586;9.692;2023-08-21T07:22:18;0.20;;;0.20;;
13991;SDS011;7070;53.586;9.692;2023-08-21T07:24:46;0.20;;;0.20;;
13991;SDS011;7070;53.586;9.692;2023-08-21T07:27:13;0.20;;;0.20;;
13991;SDS011;7070;53.586;9.692;2023-08-21T07:29:40;0.20;;;0.20;;
13991;SDS011;7070;53.586;9.692;2023-08-21T07:32:06;0.20;;;0.20;;
13991;SDS011;7070;53.586;9.692;2023-08-21T07:34:33;0.20;;;0.20;;
13991;SDS011;7070;53.586;9.692;2023-08-21T07:37:00;0.20;;;0.20;;
13991;SDS011;7070;53.586;9.692;2023-08-21T07:39:28;0.20;;;0.20;;
13991;SDS011;7070;53.586;9.692;2023-08-21T07:41:55;0.20;;;0.20;;
13991;SDS011;7070;53.586;9.692;2023-08-21T07:44:22;0.20;;;0.20;;
13991;SDS011;7070;53.586;9.692;2023-08-21T07:46:49;0.20;;;0.20;;
13991;SDS011;7070;53.586;9.692;2023-08-21T07:49:16;0.30;;;0.30;;
13991;SDS011;7070;53.586;9.692;2023-08-21T07:51:42;0.20;;;0.20;;
13991;SDS011;7070;53.586;9.692;2023-08-21T07:54:09;0.20;;;0.20;;
13991;SDS011;7070;53.586;9.692;2023-08-21T07:56:38;0.20;;;0.20;;
13991;SDS011;7070;53.586;9.692;2023-08-21T07:59:06;0.10;;;0.10;;
13991;SDS011;7070;53.586;9.692;2023-08-21T08:01:32;0.20;;;0.20;;
13991;SDS011;7070;53.586;9.692;2023-08-21T08:03:59;0.20;;;0.20;;
13991;SDS011;7070;53.586;9.692;2023-08-21T08:06:26;0.30;;;0.30;;
13991;SDS011;7070;53.586;9.692;2023-08-21T08:08:53;0.20;;;0.20;;
13991;SDS011;7070;53.586;9.692;2023-08-21T08:11:20;0.30;;;0.30;;
13991;SDS011;7070;53.586;9.692;2023-08-21T08:13:48;0.20;;;0.20;;
13991;SDS011;7070;53.586;9.692;2023-08-21T08:16:15;0.20;;;0.20;;
13991;SDS011;7070;53.586;9.692;2023-08-21T08:18:42;0.20;;;0.20;;
13991;SDS011;7070;53.586;9.692;2023-08-21T08:21:09;0.20;;;0.20;;
13991;SDS011;7070;53.586;9.692;2023-08-21T08:23:36;0.23;;;0.23;;
13991;SDS011;7070;53.586;9.692;2023-08-21T08:26:03;0.20;;;0.20;;
13991;SDS011;7070;53.586;9.692;2023-08-21T08:28:30;0.20;;;0.20;;
13991;SDS011;7070;53.586;9.692;2023-08-21T08:30:58;0.20;;;0.20;;
13991;SDS011;7070;53.586;9.692;2023-08-21T08:33:25;0.20;;;0.20;;
13991;SDS011;7070;53.586;9.692;2023-08-21T08:35:52;0.20;;;0.20;;
13991;SDS011;7070;53.586;9.692;2023-08-21T08:38:19;0.10;;;0.10;;
13991;SDS011;7070;53.586;9.692;2023-08-21T08:40:46;0.20;;;0.20;;
13991;SDS011;7070;53.586;9.692;2023-08-21T08:43:13;0.23;;;0.23;;
13991;SDS011;7070;53.586;9.692;2023-08-21T08:45:41;0.30;;;0.30;;
13991;SDS011;7070;53.586;9.692;2023-08-21T08:48:10;0.20;;;0.20;;
13991;SDS011;7070;53.586;9.692;2023-08-21T08:50:38;0.20;;;0.20;;
13991;SDS011;7070;53.586;9.692;2023-08-21T08:53:07;0.20;;;0.20;;
13991;SDS011;7070;53.586;9.692;2023-08-21T08:55:34;0.23;;;0.23;;
13991;SDS011;7070;53.586;9.692;2023-08-21T08:58:01;0.20;;;0.20;;
13991;SDS011;7070;53.586;9.692;2023-08-21T09:00:28;0.20;;;0.20;;
13991;SDS011;7070;53.586;9.692;2023-08-21T09:02:55;0.20;;;0.20;;
13991;SDS011;7070;53.586;9.692;2023-08-21T09:05:24;0.20;;;0.20;;
13991;SDS011;7070;53.586;9.692;2023-08-21T09:08:01;0.20;;;0.20;;
13991;SDS011;7070;53.586;9.692;2023-08-21T09:10:29;0.20;;;0.20;;
13991;SDS011;7070;53.586;9.692;2023-08-21T09:12:57;0.20;;;0.20;;
13991;SDS011;7070;53.586;9.692;2023-08-21T09:15:27;0.20;;;0.20;;
13991;SDS011;7070;53.586;9.692;2023-08-21T09:17:54;0.20;;;0.20;;
13991;SDS011;7070;53.586;9.692;2023-08-21T09:20:21;0.20;;;0.20;;
13991;SDS011;7070;53.586;9.692;2023-08-21T09:22:52;0.23;;;0.23;;
13991;SDS011;7070;53.586;9.692;2023-08-21T09:25:20;0.20;;;0.20;;
13991;SDS011;7070;53.586;9.692;2023-08-21T09:27:47;0.20;;;0.20;;
13991;SDS011;7070;53.586;9.692;2023-08-21T09:30:18;0.30;;;0.30;;
13991;SDS011;7070;53.586;9.692;2023-08-21T09:32:52;0.20;;;0.20;;
13991;SDS011;7070;53.586;9.692;2023-08-21T09:35:22;0.20;;;0.20;;
13991;SDS011;7070;53.586;9.692;2023-08-21T09:37:51;0.20;;;0.20;;
13991;SDS011;7070;53.586;9.692;2023-08-21T09:40:18;0.30;;;0.30;;
13991;SDS011;7070;53.586;9.692;2023-08-21T09:42:46;0.20;;;0.20;;
13991;SDS011;7070;53.586;9.692;2023-08-21T09:45:19;0.20;;;0.20;;
13991;SDS011;7070;53.586;9.692;2023-08-21T09:47:47;0.20;;;0.20;;
13991;SDS011;7070;53.586;9.692;2023-08-21T09:50:14;0.20;;;0.20;;
13991;SDS011;7070;53.586;9.692;2023-08-21T09:52:43;0.20;;;0.20;;
13991;SDS011;7070;53.586;9.692;2023-08-21T09:55:11;0.20;;;0.20;;
13991;SDS011;7070;53.586;9.692;2023-08-21T09:57:40;0.20;;;0.20;;
13991;SDS011;7070;53.586;9.692;2023-08-21T10:00:07;0.30;;;0.30;;
13991;SDS011;7070;53.586;9.692;2023-08-21T10:02:42;0.20;;;0.20;;
13991;SDS011;7070;53.586;9.692;2023-08-21T10:05:13;0.20;;;0.20;;
13991;SDS011;7070;53.586;9.692;2023-08-21T10:07:43;0.30;;;0.30;;
13991;SDS011;7070;53.586;9.692;2023-08-21T10:10:11;0.20;;;0.20;;
13991;SDS011;7070;53.586;9.692;2023-08-21T10:12:39;0.20;;;0.20;;
13991;SDS011;7070;53.586;9.692;2023-08-21T10:15:06;0.20;;;0.20;;
13991;SDS011;7070;53.586;9.692;2023-08-21T10:17:35;0.30;;;0.30;;
13991;SDS011;7070;53.586;9.692;2023-08-21T10:20:03;0.20;;;0.20;;
13991;SDS011;7070;53.586;9.692;2023-08-21T10:22:38;0.20;;;0.20;;
13991;SDS011;7070;53.586;9.692;2023-08-21T10:25:15;0.20;;;0.20;;
13991;SDS011;7070;53.586;9.692;2023-08-21T10:27:45;0.10;;;0.10;;
13991;SDS011;7070;53.586;9.692;2023-08-21T10:30:13;0.20;;;0.20;;
13991;SDS011;7070;53.586;9.692;2023-08-21T10:32:44;0.20;;;0.20;;
13991;SDS011;7070;53.586;9.692;2023-08-21T10:35:13;0.20;;;0.20;;
13991;SDS011;7070;53.586;9.692;2023-08-21T10:40:38;0.20;;;0.20;;
13991;SDS011;7070;53.586;9.692;2023-08-21T10:46:02;0.20;;;0.20;;
13991;SDS011;7070;53.586;9.692;2023-08-21T10:48:29;0.20;;;0.20;;
13991;SDS011;7070;53.586;9.692;2023-08-21T10:50:55;0.20;;;0.20;;
13991;SDS011;7070;53.586;9.692;2023-08-21T10:53:24;0.20;;;0.20;;
13991;SDS011;7070;53.586;9.692;2023-08-21T10:55:53;0.10;;;0.10;;
13991;SDS011;7070;53.586;9.692;2023-08-21T10:58:20;0.20;;;0.20;;
13991;SDS011;7070;53.586;9.692;2023-08-21T11:00:55;0.10;;;0.10;;
13991;SDS011;7070;53.586;9.692;2023-08-21T11:03:22;0.17;;;0.17;;
13991;SDS011;7070;53.586;9.692;2023-08-21T11:05:59;0.20;;;0.20;;
13991;SDS011;7070;53.586;9.692;2023-08-21T11:08:27;0.20;;;0.20;;
13991;SDS011;7070;53.586;9.692;2023-08-21T11:10:56;0.20;;;0.20;;
13991;SDS011;7070;53.586;9.692;2023-08-21T11:13:23;0.20;;;0.20;;
13991;SDS011;7070;53.586;9.692;2023-08-21T11:15:57;0.20;;;0.20;;
13991;SDS011;7070;53.586;9.692;2023-08-21T11:18:29;0.10;;;0.10;;
13991;SDS011;7070;53.586;9.692;2023-08-21T11:21:02;0.20;;;0.20;;
13991;SDS011;7070;53.586;9.692;2023-08-21T11:23:32;0.20;;;0.20;;
13991;SDS011;7070;53.586;9.692;2023-08-21T11:26:01;0.20;;;0.20;;
13991;SDS011;7070;53.586;9.692;2023-08-21T11:28:29;0.20;;;0.20;;
13991;SDS011;7070;53.586;9.692;2023-08-21T11:30:56;0.20;;;0.20;;
13991;SDS011;7070;53.586;9.692;2023-08-21T11:33:25;0.10;;;0.10;;
13991;SDS011;7070;53.586;9.692;2023-08-21T11:35:52;0.20;;;0.20;;
13991;SDS011;7070;53.586;9.692;2023-08-21T11:38:20;0.10;;;0.10;;
13991;SDS011;7070;53.586;9.692;2023-08-21T11:40:51;0.10;;;0.10;;
13991;SDS011;7070;53.586;9.692;2023-08-21T11:43:20;0.20;;;0.20;;
13991;SDS011;7070;53.586;9.692;2023-08-21T11:45:47;0.20;;;0.20;;
13991;SDS011;7070;53.586;9.692;2023-08-21T11:48:14;0.10;;;0.10;;
13991;SDS011;7070;53.586;9.692;2023-08-21T11:50:41;0.30;;;0.30;;
13991;SDS011;7070;53.586;9.692;2023-08-21T11:53:07;0.20;;;0.20;;
13991;SDS011;7070;53.586;9.692;2023-08-21T11:55:36;0.20;;;0.20;;
13991;SDS011;7070;53.586;9.692;2023-08-21T11:58:03;0.20;;;0.20;;
13991;SDS011;7070;53.586;9.692;2023-08-21T12:00:32;0.20;;;0.20;;
13991;SDS011;7070;53.586;9.692;2023-08-21T12:02:59;0.20;;;0.20;;
13991;SDS011;7070;53.586;9.692;2023-08-21T12:05:28;0.20;;;0.20;;
13991;SDS011;7070;53.586;9.692;2023-08-21T12:07:55;0.30;;;0.30;;
13991;SDS011;7070;53.586;9.692;2023-08-21T12:10:23;0.20;;;0.20;;
13991;SDS011;7070;53.586;9.692;2023-08-21T12:12:50;0.20;;;0.20;;
13991;SDS011;7070;53.586;9.692;2023-08-21T12:15:17;0.15;;;0.15;;
13991;SDS011;7070;53.586;9.692;2023-08-21T12:17:45;0.20;;;0.20;;
13991;SDS011;7070;53.586;9.692;2023-08-21T12:20:12;0.20;;;0.20;;
13991;SDS011;7070;53.586;9.692;2023-08-21T12:22:39;0.20;;;0.20;;
13991;SDS011;7070;53.586;9.692;2023-08-21T12:25:07;0.10;;;0.10;;
13991;SDS011;7070;53.586;9.692;2023-08-21T12:27:35;0.20;;;0.20;;
13991;SDS011;7070;53.586;9.692;2023-08-21T12:30:02;0.20;;;0.20;;
13991;SDS011;7070;53.586;9.692;2023-08-21T12:32:29;0.20;;;0.20;;
13991;SDS011;7070;53.586;9.692;2023-08-21T12:34:57;0.20;;;0.20;;
13991;SDS011;7070;53.586;9.692;2023-08-21T12:37:24;0.10;;;0.10;;
13991;SDS011;7070;53.586;9.692;2023-08-21T12:39:51;0.20;;;0.20;;
13991;SDS011;7070;53.586;9.692;2023-08-21T12:42:19;0.10;;;0.10;;
13991;SDS011;7070;53.586;9.692;2023-08-21T12:44:46;0.15;;;0.15;;
13991;SDS011;7070;53.586;9.692;2023-08-21T12:47:13;0.10;;;0.10;;
13991;SDS011;7070;53.586;9.692;2023-08-21T12:49:40;0.17;;;0.17;;
13991;SDS011;7070;53.586;9.692;2023-08-21T12:52:08;0.20;;;0.20;;
13991;SDS011;7070;53.586;9.692;2023-08-21T12:54:36;0.20;;;0.20;;
13991;SDS011;7070;53.586;9.692;2023-08-21T12:57:03;0.10;;;0.10;;
13991;SDS011;7070;53.586;9.692;2023-08-21T12:59:30;0.20;;;0.20;;
13991;SDS011;7070;53.586;9.692;2023-08-21T13:01:58;0.10;;;0.10;;
13991;SDS011;7070;53.586;9.692;2023-08-21T13:04:25;0.20;;;0.20;;
13991;SDS011;7070;53.586;9.692;2023-08-21T13:06:52;0.10;;;0.10;;
13991;SDS011;7070;53.586;9.692;2023-08-21T13:09:20;0.10;;;0.10;;
13991;SDS011;7070;53.586;9.692;2023-08-21T13:11:49;0.20;;;0.20;;
13991;SDS011;7070;53.586;9.692;2023-08-21T13:14:15;0.20;;;0.20;;
13991;SDS011;7070;53.586;9.692;2023-08-21T13:16:42;0.20;;;0.20;;
13991;SDS011;7070;53.586;9.692;2023-08-21T13:19:09;0.20;;;0.20;;
13991;SDS011;7070;53.586;9.692;2023-08-21T13:21:36;0.20;;;0.20;;
13991;SDS011;7070;53.586;9.692;2023-08-21T13:24:03;0.10;;;0.10;;
13991;SDS011;7070;53.586;9.692;2023-08-21T13:26:32;0.10;;;0.10;;
13991;SDS011;7070;53.586;9.692;2023-08-21T13:28:59;0.10;;;0.10;;
13991;SDS011;7070;53.586;9.692;2023-08-21T13:31:26;0.10;;;0.10;;
13991;SDS011;7070;53.586;9.692;2023-08-21T13:33:53;0.20;;;0.20;;
13991;SDS011;7070;53.586;9.692;2023-08-21T13:36:20;0.10;;;0.10;;
13991;SDS011;7070;53.586;9.692;2023-08-21T13:38:47;0.20;;;0.20;;
13991;SDS011;7070;53.586;9.692;2023-08-21T13:41:14;0.10;;;0.10;;
13991;SDS011;7070;53.586;9.692;2023-08-21T13:43:42;0.20;;;0.20;;
13991;SDS011;7070;53.586;9.692;2023-08-21T13:46:09;0.10;;;0.10;;
13991;SDS011;7070;53.586;9.692;2023-08-21T13:48:36;0.20;;;0.20;;
13991;SDS011;7070;53.586;9.692;2023-08-21T13:51:03;0.10;;;0.10;;
13991;SDS011;7070;53.586;9.692;2023-08-21T13:53:30;0.20;;;0.20;;
13991;SDS011;7070;53.586;9.692;2023-08-21T13:55:57;0.20;;;0.20;;
13991;SDS011;7070;53.586;9.692;2023-08-21T13:58:23;0.20;;;0.20;;
13991;SDS011;7070;53.586;9.692;2023-08-21T14:00:52;0.20;;;0.20;;
13991;SDS011;7070;53.586;9.692;2023-08-21T14:03:20;0.20;;;0.20;;
13991;SDS011;7070;53.586;9.692;2023-08-21T14:05:47;0.20;;;0.20;;
13991;SDS011;7070;53.586;9.692;2023-08-21T14:08:14;0.20;;;0.20;;
13991;SDS011;7070;53.586;9.692;2023-08-21T14:10:41;0.10;;;0.10;;
13991;SDS011;7070;53.586;9.692;2023-08-21T14:13:08;0.20;;;0.20;;
13991;SDS011;7070;53.586;9.692;2023-08-21T14:15:34;0.20;;;0.20;;
13991;SDS011;7070;53.586;9.692;2023-08-21T14:18:03;0.20;;;0.20;;
13991;SDS011;7070;53.586;9.692;2023-08-21T14:20:30;0.20;;;0.20;;
13991;SDS011;7070;53.586;9.692;2023-08-21T14:22:57;0.10;;;0.10;;
13991;SDS011;7070;53.586;9.692;2023-08-21T14:25:24;0.10;;;0.10;;
13991;SDS011;7070;53.586;9.692;2023-08-21T14:27:51;0.10;;;0.10;;
13991;SDS011;7070;53.586;9.692;2023-08-21T14:30:18;0.20;;;0.20;;
13991;SDS011;7070;53.586;9.692;2023-08-21T14:32:44;0.20;;;0.20;;
13991;SDS011;7070;53.586;9.692;2023-08-21T14:35:13;0.20;;;0.20;;
13991;SDS011;7070;53.586;9.692;2023-08-21T14:37:40;0.20;;;0.20;;
13991;SDS011;7070;53.586;9.692;2023-08-21T14:40:07;0.25;;;0.25;;
13991;SDS011;7070;53.586;9.692;2023-08-21T14:42:34;0.17;;;0.17;;
13991;SDS011;7070;53.586;9.692;2023-08-21T14:45:01;0.20;;;0.20;;
13991;SDS011;7070;53.586;9.692;2023-08-21T14:47:29;0.20;;;0.20;;
13991;SDS011;7070;53.586;9.692;2023-08-21T14:49:55;0.20;;;0.20;;
13991;SDS011;7070;53.586;9.692;2023-08-21T14:52:25;0.20;;;0.20;;
13991;SDS011;7070;53.586;9.692;2023-08-21T14:54:52;0.10;;;0.10;;
13991;SDS011;7070;53.586;9.692;2023-08-21T14:57:22;0.20;;;0.20;;
13991;SDS011;7070;53.586;9.692;2023-08-21T15:00:05;0.20;;;0.20;;
13991;SDS011;7070;53.586;9.692;2023-08-21T15:02:36;0.20;;;0.20;;
13991;SDS011;7070;53.586;9.692;2023-08-21T15:05:03;0.20;;;0.20;;
13991;SDS011;7070;53.586;9.692;2023-08-21T15:07:32;0.20;;;0.20;;
13991;SDS011;7070;53.586;9.692;2023-08-21T15:10:01;0.20;;;0.20;;